createdAt,value
2023-09-26T00:00:53.154Z,11.99
2023-09-26T00:01:53.130Z,11.96
2023-09-26T00:02:53.318Z,11.96
2023-09-26T00:03:53.332Z,11.95
2023-09-26T00:04:53.149Z,11.95
2023-09-26T00:05:53.062Z,11.94
2023-09-26T00:06:53.106Z,11.94
2023-09-26T00:07:53.177Z,11.91
2023-09-26T00:08:53.049Z,11.91
2023-09-26T00:09:53.056Z,11.91
2023-09-26T00:10:53.009Z,11.90
2023-09-26T00:11:52.995Z,11.89
2023-09-26T00:12:53.007Z,11.87
2023-09-26T00:13:52.987Z,11.89
2023-09-26T00:14:52.966Z,11.86
2023-09-26T00:15:53.018Z,11.85
2023-09-26T00:16:53.068Z,11.84
2023-09-26T00:17:53.002Z,11.83
2023-09-26T00:18:52.963Z,11.82
2023-09-26T00:19:52.913Z,11.82
2023-09-26T00:20:52.913Z,11.80
2023-09-26T00:21:52.902Z,11.78
2023-09-26T00:22:52.896Z,11.76
2023-09-26T00:23:52.937Z,11.78
2023-09-26T00:24:52.890Z,11.77
2023-09-26T00:25:52.859Z,11.77
2023-09-26T00:26:52.838Z,11.76
2023-09-26T00:27:52.838Z,11.74
2023-09-26T00:28:52.811Z,11.74
2023-09-26T00:29:52.810Z,11.72
2023-09-26T00:30:52.829Z,11.72
2023-09-26T00:31:52.818Z,11.71
2023-09-26T00:32:52.790Z,11.71
2023-09-26T00:33:52.997Z,11.70
2023-09-26T00:34:52.756Z,11.68
2023-09-26T00:35:52.766Z,11.68
2023-09-26T00:36:52.860Z,11.65
2023-09-26T00:37:52.922Z,11.65
2023-09-26T00:38:52.696Z,11.64
2023-09-26T00:39:52.721Z,11.62
2023-09-26T00:40:52.695Z,11.62
2023-09-26T00:41:52.670Z,11.63
2023-09-26T00:42:52.747Z,11.62
2023-09-26T00:43:52.866Z,11.62
2023-09-26T00:44:52.634Z,11.59
2023-09-26T00:45:52.801Z,11.59
2023-09-26T00:46:52.790Z,11.58
2023-09-26T00:47:52.633Z,11.56
2023-09-26T00:48:52.612Z,11.56
2023-09-26T00:49:52.576Z,11.55
2023-09-26T00:50:52.626Z,11.54
2023-09-26T00:51:52.604Z,11.54
2023-09-26T00:52:52.618Z,11.55
2023-09-26T00:53:52.686Z,11.54
2023-09-26T00:54:52.547Z,11.57
2023-09-26T00:55:52.534Z,11.58
2023-09-26T00:56:52.556Z,11.60
2023-09-26T00:57:52.519Z,11.61
2023-09-26T00:58:52.478Z,11.58
2023-09-26T00:59:52.471Z,11.60
2023-09-26T01:00:52.525Z,11.57
2023-09-26T01:01:52.501Z,11.57
2023-09-26T01:02:52.509Z,11.54
2023-09-26T01:03:52.669Z,11.51
2023-09-26T01:04:52.427Z,11.52
2023-09-26T01:05:52.414Z,11.52
2023-09-26T01:06:52.460Z,11.48
2023-09-26T01:07:52.384Z,11.49
2023-09-26T01:08:52.390Z,11.46
2023-09-26T01:09:52.413Z,11.43
2023-09-26T01:10:52.345Z,11.42
2023-09-26T01:11:52.360Z,11.37
2023-09-26T01:12:52.380Z,11.34
2023-09-26T01:13:52.571Z,11.32
2023-09-26T01:14:52.303Z,11.29
2023-09-26T01:15:52.366Z,11.27
2023-09-26T01:16:52.352Z,11.23
2023-09-26T01:17:52.347Z,11.23
2023-09-26T01:18:52.299Z,11.17
2023-09-26T01:19:52.246Z,11.15
2023-09-26T01:20:52.273Z,11.14
2023-09-26T01:21:52.268Z,11.12
2023-09-26T01:22:52.265Z,11.10
2023-09-26T01:23:52.237Z,11.09
2023-09-26T01:24:52.278Z,11.07
2023-09-26T01:25:52.189Z,11.06
2023-09-26T01:26:52.186Z,11.06
2023-09-26T01:27:52.183Z,11.04
2023-09-26T01:28:52.231Z,11.04
2023-09-26T01:29:52.141Z,11.01
2023-09-26T01:30:52.159Z,11.02
2023-09-26T01:31:52.162Z,10.99
2023-09-26T01:32:52.223Z,11.00
2023-09-26T01:33:52.323Z,10.97
2023-09-26T01:34:52.095Z,10.97
2023-09-26T01:35:52.078Z,10.96
2023-09-26T01:36:52.095Z,10.97
2023-09-26T01:37:52.082Z,10.95
2023-09-26T01:38:52.068Z,10.94
2023-09-26T01:39:52.060Z,10.92
2023-09-26T01:40:52.055Z,10.92
2023-09-26T01:41:52.025Z,10.91
2023-09-26T01:42:52.054Z,10.89
2023-09-26T01:43:52.143Z,10.90
2023-09-26T01:44:52.031Z,10.88
2023-09-26T01:45:52.014Z,10.89
2023-09-26T01:46:52.061Z,10.87
2023-09-26T01:47:51.964Z,10.87
2023-09-26T01:48:52.017Z,10.86
2023-09-26T01:49:51.943Z,10.86
2023-09-26T01:50:51.916Z,10.84
2023-09-26T01:51:51.933Z,10.85
2023-09-26T01:52:51.919Z,10.85
2023-09-26T01:53:52.013Z,10.83
2023-09-26T01:54:51.971Z,10.84
2023-09-26T01:55:51.869Z,10.82
2023-09-26T01:56:51.856Z,10.83
2023-09-26T01:57:51.891Z,10.82
2023-09-26T01:58:51.832Z,10.83
2023-09-26T01:59:51.816Z,10.83
2023-09-26T02:00:51.828Z,10.82
2023-09-26T02:01:51.848Z,10.81
2023-09-26T02:02:51.821Z,10.83
2023-09-26T02:03:51.907Z,10.83
2023-09-26T02:04:51.788Z,10.83
2023-09-26T02:05:51.788Z,10.83
2023-09-26T02:06:51.767Z,10.82
2023-09-26T02:07:51.733Z,10.82
2023-09-26T02:08:51.717Z,10.82
2023-09-26T02:09:51.712Z,10.82
2023-09-26T02:10:51.753Z,10.84
2023-09-26T02:11:51.696Z,10.85
2023-09-26T02:12:51.855Z,10.86
2023-09-26T02:13:51.969Z,10.87
2023-09-26T02:14:51.664Z,10.89
2023-09-26T02:15:51.770Z,10.92
2023-09-26T02:16:51.722Z,10.94
2023-09-26T02:17:51.663Z,10.96
2023-09-26T02:18:51.636Z,10.96
2023-09-26T02:19:51.668Z,10.99
2023-09-26T02:20:51.611Z,11.02
2023-09-26T02:21:51.637Z,11.04
2023-09-26T02:22:51.604Z,11.05
2023-09-26T02:23:51.811Z,11.10
2023-09-26T02:24:51.602Z,11.10
2023-09-26T02:25:51.557Z,11.12
2023-09-26T02:26:51.563Z,11.15
2023-09-26T02:27:51.743Z,11.17
2023-09-26T02:28:51.504Z,11.21
2023-09-26T02:29:51.498Z,11.23
2023-09-26T02:30:51.530Z,11.26
2023-09-26T02:31:51.581Z,11.27
2023-09-26T02:32:51.531Z,11.30
2023-09-26T02:33:51.647Z,11.33
2023-09-26T02:34:51.456Z,11.32
2023-09-26T02:35:51.426Z,11.34
2023-09-26T02:36:51.466Z,11.36
2023-09-26T02:37:51.459Z,11.37
2023-09-26T02:38:51.398Z,11.38
2023-09-26T02:39:51.472Z,11.38
2023-09-26T02:40:51.384Z,11.40
2023-09-26T02:41:51.380Z,11.38
2023-09-26T02:44:03.413Z,11.33
2023-09-26T02:45:04.387Z,11.37
2023-09-26T02:46:04.538Z,11.36
2023-09-26T02:47:04.370Z,11.36
2023-09-26T02:48:04.571Z,11.36
2023-09-26T02:49:04.409Z,11.38
2023-09-26T02:50:04.357Z,11.38
2023-09-26T02:51:04.333Z,11.41
2023-09-26T02:52:04.353Z,11.39
2023-09-26T02:53:04.355Z,11.39
2023-09-26T02:54:04.306Z,11.39
2023-09-26T02:55:04.315Z,11.40
2023-09-26T02:56:04.268Z,11.40
2023-09-26T02:57:11.792Z,11.42
2023-09-26T02:58:04.280Z,11.37
2023-09-26T02:59:04.275Z,11.35
2023-09-26T03:00:04.250Z,11.35
2023-09-26T03:01:04.267Z,11.37
2023-09-26T03:02:04.257Z,11.37
2023-09-26T03:03:04.277Z,11.39
2023-09-26T03:04:04.269Z,11.40
2023-09-26T03:05:04.198Z,11.41
2023-09-26T03:06:04.161Z,11.44
2023-09-26T03:07:04.194Z,11.45
2023-09-26T03:08:04.175Z,11.47
2023-09-26T03:09:04.169Z,11.48
2023-09-26T03:10:04.185Z,11.52
2023-09-26T03:11:04.108Z,11.52
2023-09-26T03:12:04.124Z,11.54
2023-09-26T03:13:04.134Z,11.56
2023-09-26T03:14:04.115Z,11.58
2023-09-26T03:15:04.077Z,11.62
2023-09-26T03:16:04.128Z,11.61
2023-09-26T03:17:04.197Z,11.64
2023-09-26T03:18:04.097Z,11.63
2023-09-26T03:19:04.088Z,11.67
2023-09-26T03:20:04.026Z,11.67
2023-09-26T03:21:04.001Z,11.70
2023-09-26T03:22:04.009Z,11.69
2023-09-26T03:23:03.976Z,11.71
2023-09-26T03:24:03.994Z,11.71
2023-09-26T03:25:04.045Z,11.73
2023-09-26T03:26:03.968Z,11.76
2023-09-26T03:27:03.949Z,11.75
2023-09-26T03:28:03.933Z,11.77
2023-09-26T03:29:03.918Z,11.78
2023-09-26T03:30:03.947Z,11.79
2023-09-26T03:31:03.979Z,11.81
2023-09-26T03:32:04.070Z,11.81
2023-09-26T03:33:03.914Z,11.83
2023-09-26T03:34:03.895Z,11.84
2023-09-26T03:35:03.889Z,11.85
2023-09-26T03:36:03.848Z,11.84
2023-09-26T03:37:03.886Z,11.86
2023-09-26T03:38:03.842Z,11.85
2023-09-26T03:39:03.839Z,11.84
2023-09-26T03:40:03.864Z,11.85
2023-09-26T03:41:03.790Z,11.83
2023-09-26T03:42:03.786Z,11.81
2023-09-26T03:43:03.788Z,11.77
2023-09-26T03:44:03.775Z,11.76
2023-09-26T03:45:03.779Z,11.76
2023-09-26T03:46:03.832Z,11.72
2023-09-26T03:47:03.812Z,11.71
2023-09-26T03:48:03.751Z,11.70
2023-09-26T03:49:03.776Z,11.71
2023-09-26T03:50:03.719Z,11.73
2023-09-26T03:51:03.681Z,11.73
2023-09-26T03:52:03.690Z,11.74
2023-09-26T03:53:03.668Z,11.75
2023-09-26T03:54:03.648Z,11.78
2023-09-26T03:55:03.923Z,11.77
2023-09-26T03:56:03.655Z,11.82
2023-09-26T03:57:03.619Z,11.83
2023-09-26T03:58:03.655Z,11.82
2023-09-26T03:59:03.625Z,11.85
2023-09-26T04:00:03.581Z,11.84
2023-09-26T04:01:03.658Z,11.86
2023-09-26T04:02:03.697Z,11.85
2023-09-26T04:03:03.580Z,11.85
2023-09-26T04:04:03.809Z,11.86
2023-09-26T04:05:03.525Z,11.86
2023-09-26T04:06:03.545Z,11.86
2023-09-26T04:07:03.581Z,11.84
2023-09-26T04:08:03.501Z,11.83
2023-09-26T04:09:03.494Z,11.82
2023-09-26T04:10:03.528Z,11.82
2023-09-26T04:11:03.505Z,11.81
2023-09-26T04:12:03.466Z,11.79
2023-09-26T04:13:03.514Z,11.77
2023-09-26T04:14:03.441Z,11.78
2023-09-26T04:15:03.443Z,11.78
2023-09-26T04:16:03.447Z,11.76
2023-09-26T04:17:03.388Z,11.80
2023-09-26T04:18:03.434Z,11.81
2023-09-26T04:19:03.508Z,11.80
2023-09-26T04:20:03.463Z,11.81
2023-09-26T04:21:03.382Z,11.80
2023-09-26T04:22:03.391Z,11.78
2023-09-26T04:23:03.327Z,11.76
2023-09-26T04:24:03.331Z,11.75
2023-09-26T04:25:03.360Z,11.75
2023-09-26T04:26:03.356Z,11.74
2023-09-26T04:27:03.305Z,11.73
2023-09-26T04:28:03.353Z,11.73
2023-09-26T04:29:03.308Z,11.72
2023-09-26T04:30:03.267Z,11.70
2023-09-26T04:31:03.383Z,11.70
2023-09-26T04:32:03.382Z,11.69
2023-09-26T04:33:03.281Z,11.68
2023-09-26T04:34:03.231Z,11.67
2023-09-26T04:35:03.235Z,11.65
2023-09-26T04:36:03.202Z,11.63
2023-09-26T04:37:03.312Z,11.64
2023-09-26T04:38:03.267Z,11.63
2023-09-26T04:39:03.164Z,11.62
2023-09-26T04:40:03.180Z,11.61
2023-09-26T04:41:03.170Z,11.62
2023-09-26T04:42:03.159Z,11.60
2023-09-26T04:43:03.136Z,11.58
2023-09-26T04:44:03.105Z,11.58
2023-09-26T04:45:03.104Z,11.58
2023-09-26T04:46:03.120Z,11.56
2023-09-26T04:47:03.126Z,11.54
2023-09-26T04:48:03.156Z,11.53
2023-09-26T04:49:03.150Z,11.51
2023-09-26T04:50:03.034Z,11.49
2023-09-26T04:51:03.059Z,11.46
2023-09-26T04:52:03.132Z,11.43
2023-09-26T04:53:03.019Z,11.40
2023-09-26T04:54:03.047Z,11.39
2023-09-26T04:55:03.053Z,11.39
2023-09-26T04:56:02.998Z,11.36
2023-09-26T04:57:03.020Z,11.35
2023-09-26T04:58:03.079Z,11.34
2023-09-26T04:59:02.937Z,11.33
2023-09-26T05:00:02.948Z,11.31
2023-09-26T05:01:02.993Z,11.31
2023-09-26T05:02:03.016Z,11.29
2023-09-26T05:03:02.966Z,11.28
2023-09-26T05:04:02.987Z,11.26
2023-09-26T05:05:02.887Z,11.25
2023-09-26T05:06:02.886Z,11.25
2023-09-26T05:07:02.915Z,11.22
2023-09-26T05:08:02.863Z,11.22
2023-09-26T05:09:02.843Z,11.22
2023-09-26T05:10:03.051Z,11.21
2023-09-26T05:11:02.847Z,11.22
2023-09-26T05:12:02.822Z,11.19
2023-09-26T05:13:02.850Z,11.16
2023-09-26T05:14:02.784Z,11.15
2023-09-26T05:15:02.766Z,11.15
2023-09-26T05:16:02.802Z,11.13
2023-09-26T05:17:02.839Z,11.12
2023-09-26T05:18:02.823Z,11.09
2023-09-26T05:19:02.752Z,11.08
2023-09-26T05:20:02.717Z,11.07
2023-09-26T05:21:02.714Z,11.07
2023-09-26T05:22:02.819Z,11.07
2023-09-26T05:23:02.701Z,11.07
2023-09-26T05:24:02.689Z,11.07
2023-09-26T05:25:02.690Z,11.07
2023-09-26T05:26:02.697Z,11.08
2023-09-26T05:27:02.643Z,11.07
2023-09-26T05:28:02.716Z,11.11
2023-09-26T05:29:02.636Z,11.10
2023-09-26T05:30:02.605Z,11.10
2023-09-26T05:31:02.699Z,11.10
2023-09-26T05:32:02.684Z,11.11
2023-09-26T05:33:02.651Z,11.10
2023-09-26T05:34:02.615Z,11.10
2023-09-26T05:35:02.576Z,11.09
2023-09-26T05:36:02.540Z,11.11
2023-09-26T05:37:02.581Z,11.10
2023-09-26T05:38:02.524Z,11.13
2023-09-26T05:39:02.535Z,11.11
2023-09-26T05:40:02.516Z,11.11
2023-09-26T05:41:02.492Z,11.12
2023-09-26T05:42:02.510Z,11.10
2023-09-26T05:43:02.557Z,11.13
2023-09-26T05:44:02.478Z,11.13
2023-09-26T05:45:02.440Z,11.16
2023-09-26T05:46:02.529Z,11.16
2023-09-26T05:47:02.503Z,11.19
2023-09-26T05:48:02.443Z,11.19
2023-09-26T05:49:02.441Z,11.20
2023-09-26T05:50:02.389Z,11.22
2023-09-26T05:51:02.398Z,11.24
2023-09-26T05:52:02.380Z,11.25
2023-09-26T05:53:02.366Z,11.27
2023-09-26T05:54:02.359Z,11.29
2023-09-26T05:55:02.424Z,11.29
2023-09-26T05:56:02.333Z,11.32
2023-09-26T05:57:02.318Z,11.32
2023-09-26T05:58:02.334Z,11.33
2023-09-26T05:59:02.320Z,11.34
2023-09-26T06:00:02.296Z,11.33
2023-09-26T06:01:02.370Z,11.34
2023-09-26T06:02:02.370Z,11.35
2023-09-26T06:03:02.414Z,11.35
2023-09-26T06:04:02.341Z,11.34
2023-09-26T06:05:02.499Z,11.35
2023-09-26T06:06:02.220Z,11.36
2023-09-26T06:07:02.314Z,11.35
2023-09-26T06:08:02.206Z,11.37
2023-09-26T06:09:02.214Z,11.42
2023-09-26T06:10:09.047Z,11.42
2023-09-26T06:11:02.182Z,11.45
2023-09-26T06:12:02.152Z,11.48
2023-09-26T06:13:02.182Z,11.47
2023-09-26T06:14:02.128Z,11.46
2023-09-26T06:15:02.154Z,11.47
2023-09-26T06:16:02.182Z,11.46
2023-09-26T06:17:02.161Z,11.47
2023-09-26T06:18:02.139Z,11.47
2023-09-26T06:19:02.110Z,11.49
2023-09-26T06:20:02.088Z,11.50
2023-09-26T06:21:02.072Z,11.52
2023-09-26T06:22:02.066Z,11.56
2023-09-26T06:23:02.033Z,11.57
2023-09-26T06:24:02.032Z,11.59
2023-09-26T06:25:02.134Z,11.59
2023-09-26T06:26:02.006Z,11.62
2023-09-26T06:27:02.007Z,11.65
2023-09-26T06:28:02.000Z,11.66
2023-09-26T06:29:01.981Z,11.70
2023-09-26T06:30:01.981Z,11.72
2023-09-26T06:31:01.989Z,11.77
2023-09-26T06:32:01.970Z,11.78
2023-09-26T06:33:02.025Z,11.77
2023-09-26T06:34:01.954Z,11.77
2023-09-26T06:35:01.952Z,11.76
2023-09-26T06:36:01.909Z,11.78
2023-09-26T06:37:01.994Z,11.78
2023-09-26T06:38:01.862Z,11.80
2023-09-26T06:39:01.856Z,11.79
2023-09-26T06:40:01.936Z,11.80
2023-09-26T06:41:01.854Z,11.84
2023-09-26T06:42:01.845Z,11.85
2023-09-26T06:43:01.915Z,11.87
2023-09-26T06:44:01.795Z,11.89
2023-09-26T06:45:01.823Z,11.91
2023-09-26T06:46:01.948Z,11.92
2023-09-26T06:47:01.830Z,11.94
2023-09-26T06:48:01.837Z,11.93
2023-09-26T06:49:01.823Z,11.95
2023-09-26T06:50:01.729Z,11.94
2023-09-26T06:51:01.756Z,11.95
2023-09-26T06:52:01.787Z,11.96
2023-09-26T06:53:01.719Z,11.97
2023-09-26T06:54:01.705Z,11.97
2023-09-26T06:55:01.755Z,11.97
2023-09-26T06:56:01.856Z,12.02
2023-09-26T06:57:01.657Z,12.10
2023-09-26T06:58:01.725Z,12.17
2023-09-26T06:59:01.861Z,12.21
2023-09-26T07:00:01.664Z,12.27
2023-09-26T07:01:01.660Z,12.33
2023-09-26T07:02:01.701Z,12.37
2023-09-26T07:03:01.667Z,12.39
2023-09-26T07:04:01.741Z,12.45
2023-09-26T07:05:01.651Z,12.49
2023-09-26T07:06:01.591Z,12.50
2023-09-26T07:07:01.856Z,12.48
2023-09-26T07:08:01.566Z,12.47
2023-09-26T07:09:01.561Z,12.49
2023-09-26T07:10:01.535Z,12.53
2023-09-26T07:11:01.508Z,12.56
2023-09-26T07:12:01.585Z,12.60
2023-09-26T07:13:01.525Z,12.64
2023-09-26T07:14:01.833Z,12.72
2023-09-26T07:15:01.499Z,12.80
2023-09-26T07:16:01.487Z,12.87
2023-09-26T07:17:01.491Z,12.90
2023-09-26T07:18:01.457Z,12.97
2023-09-26T07:19:01.487Z,12.99
2023-09-26T07:20:01.416Z,13.04
2023-09-26T07:21:01.404Z,13.09
2023-09-26T07:22:01.501Z,13.12
2023-09-26T07:23:01.382Z,13.19
2023-09-26T07:24:01.431Z,13.24
2023-09-26T07:25:01.473Z,13.28
2023-09-26T07:26:01.366Z,13.34
2023-09-26T07:27:01.373Z,13.44
2023-09-26T07:28:01.421Z,13.54
2023-09-26T07:29:01.310Z,13.61
2023-09-26T07:30:01.304Z,13.68
2023-09-26T07:31:01.408Z,13.76
2023-09-26T07:32:01.306Z,13.86
2023-09-26T07:33:01.365Z,13.99
2023-09-26T07:34:01.290Z,14.11
2023-09-26T07:35:01.249Z,14.17
2023-09-26T07:36:01.240Z,14.24
2023-09-26T07:37:01.265Z,14.34
2023-09-26T07:38:01.235Z,14.46
2023-09-26T07:39:01.204Z,14.56
2023-09-26T07:40:01.242Z,14.65
2023-09-26T07:41:01.209Z,14.77
2023-09-26T07:42:01.192Z,14.88
2023-09-26T07:43:01.200Z,14.95
2023-09-26T07:44:01.143Z,15.03
2023-09-26T07:45:01.137Z,15.12
2023-09-26T07:46:01.262Z,15.23
2023-09-26T07:47:01.267Z,15.30
2023-09-26T07:48:01.203Z,15.36
2023-09-26T07:49:01.137Z,15.40
2023-09-26T07:50:01.099Z,15.41
2023-09-26T07:51:01.102Z,15.46
2023-09-26T07:52:01.106Z,15.51
2023-09-26T07:53:01.088Z,15.67
2023-09-26T07:54:01.047Z,15.86
2023-09-26T07:55:01.071Z,16.02
2023-09-26T07:56:01.025Z,16.11
2023-09-26T07:57:01.017Z,16.14
2023-09-26T07:58:01.083Z,16.14
2023-09-26T07:59:01.004Z,16.14
2023-09-26T08:00:00.965Z,16.14
2023-09-26T08:01:01.076Z,16.11
2023-09-26T08:02:01.026Z,16.18
2023-09-26T08:03:00.977Z,16.26
2023-09-26T08:04:01.005Z,16.33
2023-09-26T08:05:01.050Z,16.38
2023-09-26T08:06:00.944Z,16.42
2023-09-26T08:07:00.919Z,16.49
2023-09-26T08:08:00.883Z,16.54
2023-09-26T08:09:00.914Z,16.62
2023-09-26T08:10:00.884Z,16.68
2023-09-26T08:11:00.857Z,16.76
2023-09-26T08:12:00.843Z,16.84
2023-09-26T08:13:00.884Z,16.90
2023-09-26T08:14:00.848Z,17.00
2023-09-26T08:15:00.809Z,17.22
2023-09-26T08:16:00.903Z,17.38
2023-09-26T08:17:00.869Z,17.65
2023-09-26T08:18:00.823Z,17.93
2023-09-26T08:19:00.844Z,18.18
2023-09-26T08:20:00.746Z,18.41
2023-09-26T08:21:00.752Z,18.61
2023-09-26T08:22:00.783Z,18.76
2023-09-26T08:23:00.739Z,18.96
2023-09-26T08:24:00.736Z,19.16
2023-09-26T08:25:00.738Z,19.35
2023-09-26T08:26:00.685Z,19.53
2023-09-26T08:27:00.675Z,19.69
2023-09-26T08:28:00.710Z,19.82
2023-09-26T08:29:00.678Z,19.97
2023-09-26T08:30:00.644Z,20.11
2023-09-26T08:31:00.691Z,20.25
2023-09-26T08:32:00.637Z,20.41
2023-09-26T08:33:00.680Z,20.53
2023-09-26T08:34:00.640Z,20.68
2023-09-26T08:35:00.611Z,20.82
2023-09-26T08:36:00.610Z,20.94
2023-09-26T08:37:00.597Z,21.05
2023-09-26T08:38:00.551Z,21.07
2023-09-26T08:39:00.544Z,21.08
2023-09-26T08:40:00.616Z,21.11
2023-09-26T08:41:00.534Z,21.16
2023-09-26T08:42:00.508Z,21.23
2023-09-26T08:43:00.541Z,21.30
2023-09-26T08:44:00.484Z,21.38
2023-09-26T08:45:00.495Z,21.39
2023-09-26T08:46:00.503Z,21.45
2023-09-26T08:47:00.576Z,21.49
2023-09-26T08:48:00.598Z,21.55
2023-09-26T08:49:00.963Z,21.57
2023-09-26T08:50:00.509Z,21.58
2023-09-26T08:51:00.424Z,21.67
2023-09-26T08:52:00.464Z,21.74
2023-09-26T08:53:00.408Z,21.79
2023-09-26T08:54:00.372Z,21.85
2023-09-26T08:55:00.413Z,21.93
2023-09-26T08:56:00.355Z,22.00
2023-09-26T08:57:00.354Z,22.05
2023-09-26T08:58:06.925Z,22.11
2023-09-26T08:59:00.339Z,22.05
2023-09-26T09:00:00.359Z,21.99
2023-09-26T09:01:00.366Z,21.92
2023-09-26T09:02:00.322Z,21.91
2023-09-26T09:03:00.376Z,21.91
2023-09-26T09:04:00.451Z,21.90
2023-09-26T09:05:01.623Z,21.91
2023-09-26T09:06:00.292Z,21.93
2023-09-26T09:07:00.248Z,21.97
2023-09-26T09:08:00.250Z,21.98
2023-09-26T09:09:01.165Z,22.01
2023-09-26T09:10:00.291Z,22.04
2023-09-26T09:11:00.240Z,22.07
2023-09-26T09:12:00.205Z,22.12
2023-09-26T09:13:00.224Z,22.21
2023-09-26T09:14:00.185Z,22.31
2023-09-26T09:15:00.159Z,22.37
2023-09-26T09:16:00.245Z,22.44
2023-09-26T09:17:00.239Z,22.44
2023-09-26T09:18:00.164Z,22.51
2023-09-26T09:19:00.386Z,22.59
2023-09-26T09:20:00.201Z,22.70
2023-09-26T09:21:00.105Z,22.81
2023-09-26T09:22:00.116Z,22.94
2023-09-26T09:23:00.085Z,23.03
2023-09-26T09:24:00.086Z,23.11
2023-09-26T09:25:00.063Z,23.14
2023-09-26T09:26:00.043Z,23.15
2023-09-26T09:27:00.043Z,23.14
2023-09-26T09:28:00.075Z,23.14
2023-09-26T09:29:00.018Z,23.12
2023-09-26T09:30:00.028Z,23.13
2023-09-26T09:31:00.051Z,23.18
2023-09-26T09:32:00.029Z,23.28
2023-09-26T09:33:00.033Z,23.42
2023-09-26T09:33:59.991Z,23.53
2023-09-26T09:34:59.947Z,23.60
2023-09-26T09:35:59.942Z,23.69
2023-09-26T09:36:59.998Z,23.78
2023-09-26T09:37:59.947Z,23.87
2023-09-26T09:38:59.919Z,23.96
2023-09-26T09:39:59.926Z,24.04
2023-09-26T09:40:59.892Z,24.11
2023-09-26T09:41:59.895Z,24.18
2023-09-26T09:42:59.927Z,24.26
2023-09-26T09:43:59.892Z,24.33
2023-09-26T09:44:59.850Z,24.37
2023-09-26T09:45:59.966Z,24.44
2023-09-26T09:46:59.923Z,24.47
2023-09-26T09:47:59.878Z,24.49
2023-09-26T09:48:59.806Z,24.51
2023-09-26T09:49:59.800Z,24.52
2023-09-26T09:50:59.777Z,24.49
2023-09-26T09:51:59.790Z,24.45
2023-09-26T09:52:59.747Z,24.36
2023-09-26T09:53:59.774Z,24.31
2023-09-26T09:54:59.760Z,24.24
2023-09-26T09:55:59.716Z,24.19
2023-09-26T09:56:59.718Z,24.22
2023-09-26T09:57:59.739Z,24.23
2023-09-26T09:58:59.745Z,24.27
2023-09-26T09:59:59.700Z,24.29
2023-09-26T10:00:59.683Z,24.32
2023-09-26T10:01:59.743Z,24.40
2023-09-26T10:02:59.700Z,24.47
2023-09-26T10:03:59.716Z,24.58
2023-09-26T10:04:59.624Z,24.66
2023-09-26T10:05:59.608Z,24.76
2023-09-26T10:06:59.646Z,24.88
2023-09-26T10:07:59.584Z,24.96
2023-09-26T10:08:59.583Z,25.04
2023-09-26T10:09:59.633Z,25.12
2023-09-26T10:11:01.760Z,25.18
2023-09-26T10:11:59.533Z,25.25
2023-09-26T10:13:28.524Z,25.30
2023-09-26T10:13:59.574Z,25.32
2023-09-26T10:14:59.513Z,25.36
2023-09-26T10:15:59.543Z,25.46
2023-09-26T10:16:59.523Z,25.55
2023-09-26T10:17:59.488Z,25.64
2023-09-26T10:18:59.535Z,25.75
2023-09-26T10:20:11.555Z,25.82
2023-09-26T10:20:59.458Z,25.87
2023-09-26T10:21:59.491Z,25.95
2023-09-26T10:22:59.414Z,26.03
2023-09-26T10:23:59.404Z,26.13
2023-09-26T10:24:59.422Z,26.23
2023-09-26T10:25:59.426Z,26.25
2023-09-26T10:27:03.592Z,26.27
2023-09-26T10:28:00.345Z,26.28
2023-09-26T10:28:59.357Z,26.34
2023-09-26T10:29:59.364Z,26.41
2023-09-26T10:30:59.377Z,26.51
2023-09-26T10:31:59.466Z,26.57
2023-09-26T10:32:59.384Z,26.62
2023-09-26T10:33:59.362Z,26.70
2023-09-26T10:34:59.290Z,26.84
2023-09-26T10:35:59.311Z,26.96
2023-09-26T10:36:59.288Z,27.10
2023-09-26T10:37:59.254Z,27.20
2023-09-26T10:38:59.624Z,27.30
2023-09-26T10:39:59.246Z,27.36
2023-09-26T10:40:59.279Z,27.41
2023-09-26T10:44:00.558Z,27.55
2023-09-26T10:44:59.176Z,27.63
2023-09-26T10:45:59.255Z,27.70
2023-09-26T10:46:59.273Z,27.79
2023-09-26T11:15:19.326Z,27.91
2023-09-26T11:15:24.868Z,27.31
2023-09-26T11:16:24.805Z,27.30
2023-09-26T11:17:24.871Z,27.33
2023-09-26T11:18:24.896Z,27.37
2023-09-26T11:19:24.897Z,27.42
2023-09-26T11:20:24.787Z,27.46
2023-09-26T11:21:28.014Z,27.50
2023-09-26T11:22:24.766Z,27.57
2023-09-26T11:23:24.745Z,27.63
2023-09-26T11:24:24.760Z,27.71
2023-09-26T11:25:24.792Z,27.81
2023-09-26T11:26:24.707Z,27.90
2023-09-26T11:27:24.693Z,28.02
2023-09-26T11:28:24.686Z,28.10
2023-09-26T11:29:24.694Z,28.17
2023-09-26T11:30:24.653Z,28.26
2023-09-26T11:31:24.681Z,28.30
2023-09-26T11:32:24.758Z,28.35
2023-09-26T11:33:24.643Z,28.39
2023-09-26T11:34:24.642Z,28.40
2023-09-26T11:35:24.606Z,28.36
2023-09-26T11:36:24.599Z,28.33
2023-09-26T11:37:24.592Z,28.29
2023-09-26T11:38:24.571Z,28.26
2023-09-26T11:39:24.565Z,28.26
2023-09-26T11:40:24.575Z,28.30
2023-09-26T11:41:29.332Z,28.30
2023-09-26T11:42:24.568Z,28.28
2023-09-26T11:43:24.515Z,28.22
2023-09-26T11:44:24.497Z,28.20
2023-09-26T11:45:24.535Z,28.18
2023-09-26T11:46:24.523Z,28.14
2023-09-26T11:47:24.520Z,28.07
2023-09-26T11:48:24.457Z,28.00
2023-09-26T11:49:24.446Z,27.95
2023-09-26T11:50:24.450Z,27.93
2023-09-26T11:51:24.426Z,27.89
2023-09-26T11:52:24.418Z,27.83
2023-09-26T11:53:24.415Z,27.81
2023-09-26T11:54:24.393Z,27.83
2023-09-26T11:55:24.427Z,27.88
2023-09-26T11:56:24.378Z,27.94
2023-09-26T11:57:24.362Z,27.96
2023-09-26T11:58:24.362Z,27.99
2023-09-26T11:59:24.351Z,28.00
2023-09-26T12:00:24.352Z,27.97
2023-09-26T12:01:24.389Z,27.91
2023-09-26T12:02:24.348Z,27.87
2023-09-26T12:03:24.323Z,27.85
2023-09-26T12:04:24.400Z,27.84
2023-09-26T12:05:24.385Z,27.86
2023-09-26T12:06:24.342Z,27.85
2023-09-26T12:07:24.258Z,27.89
2023-09-26T12:08:24.241Z,27.92
2023-09-26T12:09:24.236Z,28.00
2023-09-26T12:10:24.224Z,28.08
2023-09-26T12:11:24.236Z,28.19
2023-09-26T12:12:24.195Z,28.29
2023-09-26T12:13:24.225Z,28.39
2023-09-26T12:14:24.172Z,28.43
2023-09-26T12:15:24.212Z,28.48
2023-09-26T12:16:24.196Z,28.52
2023-09-26T12:17:24.319Z,28.56
2023-09-26T12:18:24.151Z,28.62
2023-09-26T12:19:24.171Z,28.68
2023-09-26T12:20:24.122Z,28.75
2023-09-26T12:21:24.093Z,28.80
2023-09-26T12:22:24.102Z,28.83
2023-09-26T12:23:24.252Z,28.88
2023-09-26T12:24:24.056Z,28.91
2023-09-26T12:25:24.234Z,28.93
2023-09-26T12:26:24.046Z,28.93
2023-09-26T12:27:24.042Z,28.91
2023-09-26T12:28:24.017Z,28.94
2023-09-26T12:29:24.010Z,28.94
2023-09-26T12:30:23.993Z,28.94
2023-09-26T12:31:24.015Z,28.93
2023-09-26T12:32:24.153Z,28.94
2023-09-26T12:33:24.002Z,28.95
2023-09-26T12:34:23.951Z,28.95
2023-09-26T12:35:23.943Z,28.93
2023-09-26T12:36:23.926Z,28.86
2023-09-26T12:37:23.929Z,28.82
2023-09-26T12:38:23.905Z,28.81
2023-09-26T12:39:23.896Z,28.82
2023-09-26T12:40:23.881Z,28.85
2023-09-26T12:41:23.887Z,28.89
2023-09-26T12:42:23.878Z,28.93
2023-09-26T12:43:23.854Z,29.01
2023-09-26T12:44:23.842Z,29.09
2023-09-26T12:45:23.842Z,29.19
2023-09-26T12:46:23.829Z,29.27
2023-09-26T12:47:23.856Z,29.35
2023-09-26T12:48:23.838Z,29.41
2023-09-26T12:49:23.795Z,29.48
2023-09-26T12:50:23.782Z,29.56
2023-09-26T12:51:23.783Z,29.66
2023-09-26T12:52:23.782Z,29.75
2023-09-26T12:53:23.751Z,29.81
2023-09-26T12:54:23.753Z,29.83
2023-09-26T12:55:23.730Z,29.83
2023-09-26T12:56:23.713Z,29.83
2023-09-26T12:57:23.705Z,29.79
2023-09-26T12:58:23.721Z,29.73
2023-09-26T12:59:23.743Z,29.72
2023-09-26T13:00:23.703Z,29.72
2023-09-26T13:01:23.679Z,29.73
2023-09-26T13:02:23.715Z,29.71
2023-09-26T13:03:23.695Z,29.72
2023-09-26T13:04:23.623Z,29.77
2023-09-26T13:05:23.619Z,29.81
2023-09-26T13:06:23.612Z,29.86
2023-09-26T13:07:23.647Z,29.93
2023-09-26T13:08:23.626Z,30.00
2023-09-26T13:09:23.577Z,30.06
2023-09-26T13:10:23.576Z,30.14
2023-09-26T13:11:23.571Z,30.19
2023-09-26T13:12:23.568Z,30.21
2023-09-26T13:13:23.558Z,30.24
2023-09-26T13:14:23.517Z,30.28
2023-09-26T13:15:23.504Z,30.33
2023-09-26T13:16:23.503Z,30.36
2023-09-26T13:17:23.482Z,30.33
2023-09-26T13:18:23.505Z,30.32
2023-09-26T13:19:23.453Z,30.37
2023-09-26T13:20:23.470Z,30.41
2023-09-26T13:21:23.445Z,30.47
2023-09-26T13:22:23.434Z,30.52